createdAt,value
2022-10-18T00:00:46.827Z,78.40
2022-10-18T00:01:48.431Z,78.23
2022-10-18T00:02:49.947Z,77.67
2022-10-18T00:03:51.362Z,77.65
2022-10-18T00:04:52.826Z,77.69
2022-10-18T00:05:54.334Z,77.79
2022-10-18T00:06:55.812Z,77.61
2022-10-18T00:07:57.401Z,77.58
2022-10-18T00:08:58.857Z,77.57
2022-10-18T00:10:00.265Z,77.53
2022-10-18T00:11:01.834Z,77.76
2022-10-18T00:12:05.063Z,78.29
2022-10-18T00:13:06.563Z,77.95
2022-10-18T00:14:08.107Z,77.89
2022-10-18T00:15:11.048Z,77.71
2022-10-18T00:16:15.231Z,77.76
2022-10-18T00:17:16.823Z,77.82
2022-10-18T00:18:18.733Z,77.54
2022-10-18T00:19:20.205Z,77.42
2022-10-18T00:20:21.715Z,77.27
2022-10-18T00:21:24.789Z,77.21
2022-10-18T00:22:26.295Z,77.65
2022-10-18T00:23:29.682Z,77.64
2022-10-18T00:24:31.091Z,77.60
2022-10-18T00:25:32.517Z,77.21
2022-10-18T00:26:34.023Z,77.44
2022-10-18T00:27:37.031Z,77.41
2022-10-18T00:28:38.885Z,77.10
2022-10-18T00:29:40.370Z,77.10
2022-10-18T00:30:41.850Z,77.11
2022-10-18T00:31:44.342Z,77.15
2022-10-18T00:32:45.811Z,76.79
2022-10-18T00:33:50.512Z,76.94
2022-10-18T00:34:52.066Z,76.99
2022-10-18T00:35:53.523Z,76.88
2022-10-18T00:36:55.007Z,76.11
2022-10-18T00:37:56.467Z,76.05
2022-10-18T00:38:58.905Z,76.12
2022-10-18T00:40:00.415Z,76.05
2022-10-18T00:41:03.136Z,76.01
2022-10-18T00:42:04.740Z,76.21
2022-10-18T00:43:10.284Z,76.08
2022-10-18T00:44:48.756Z,76.16
2022-10-18T00:45:50.169Z,76.19
2022-10-18T00:46:53.532Z,76.11
2022-10-18T00:47:58.550Z,76.17
2022-10-18T00:49:02.398Z,76.43
2022-10-18T00:50:06.167Z,76.45
2022-10-18T00:51:07.746Z,76.44
2022-10-18T00:52:12.293Z,76.43
2022-10-18T00:53:17.719Z,76.39
2022-10-18T00:54:20.617Z,76.22
2022-10-18T00:55:22.466Z,76.20
2022-10-18T00:56:24.074Z,76.27
2022-10-18T00:57:26.087Z,76.19
2022-10-18T00:58:29.247Z,76.36
2022-10-18T00:59:30.877Z,76.64
2022-10-18T01:00:32.353Z,76.46
2022-10-18T01:01:33.836Z,76.02
2022-10-18T01:02:35.823Z,76.07
2022-10-18T01:03:38.051Z,76.02
2022-10-18T01:04:39.502Z,75.73
2022-10-18T01:05:44.456Z,75.64
2022-10-18T01:08:07.336Z,75.91
2022-10-18T01:09:19.242Z,75.83
2022-10-18T01:10:28.391Z,75.61
2022-10-18T01:11:46.816Z,75.71
2022-10-18T01:12:57.749Z,75.85
2022-10-18T01:14:12.391Z,76.00
2022-10-18T01:15:23.963Z,76.02
2022-10-18T01:16:31.071Z,75.80
2022-10-18T01:17:46.027Z,75.90
2022-10-18T01:18:53.380Z,75.98
2022-10-18T01:20:37.105Z,75.56
2022-10-18T01:21:47.762Z,75.57
2022-10-18T01:22:54.826Z,75.18
2022-10-18T01:24:38.022Z,74.95
2022-10-18T01:25:48.697Z,74.64
2022-10-18T01:27:07.470Z,74.00
2022-10-18T01:28:33.419Z,73.78
2022-10-18T01:29:52.447Z,73.54
2022-10-18T01:30:59.797Z,73.80
2022-10-18T01:32:03.795Z,73.79
2022-10-18T01:33:12.588Z,73.64
2022-10-18T01:34:17.483Z,73.55
2022-10-18T01:35:22.966Z,73.42
2022-10-18T01:36:31.353Z,73.70
2022-10-18T01:37:35.357Z,73.00
2022-10-18T01:38:39.537Z,73.32
2022-10-18T01:39:45.597Z,72.83
2022-10-18T01:40:50.261Z,72.81
2022-10-18T01:41:53.756Z,72.48
2022-10-18T01:42:55.468Z,72.46
2022-10-18T01:43:59.499Z,72.53
2022-10-18T01:45:03.662Z,72.63
2022-10-18T01:46:08.772Z,72.29
2022-10-18T01:47:12.242Z,72.30
2022-10-18T01:48:15.161Z,72.28
2022-10-18T01:49:16.820Z,71.79
2022-10-18T01:50:28.738Z,71.92
2022-10-18T01:51:32.780Z,71.83
2022-10-18T01:52:34.653Z,71.68
2022-10-18T01:53:36.251Z,73.07
2022-10-18T01:54:40.684Z,73.19
2022-10-18T01:55:48.434Z,73.08
2022-10-18T01:56:56.589Z,72.97
2022-10-18T01:58:05.750Z,73.46
2022-10-18T01:59:23.663Z,74.21
2022-10-18T02:00:31.625Z,74.10
2022-10-18T02:01:43.188Z,73.88
2022-10-18T02:02:50.740Z,74.23
2022-10-18T02:03:56.213Z,74.78
2022-10-18T02:05:03.179Z,75.05
2022-10-18T02:06:09.982Z,74.56
2022-10-18T02:07:19.791Z,74.32
2022-10-18T02:08:28.198Z,73.85
2022-10-18T02:09:36.604Z,73.41
2022-10-18T02:10:43.233Z,73.33
2022-10-18T02:11:48.015Z,72.85
2022-10-18T02:12:52.784Z,72.92
2022-10-18T02:13:59.217Z,73.38
2022-10-18T02:15:02.124Z,73.69
2022-10-18T02:16:07.762Z,73.66
2022-10-18T02:17:12.675Z,73.99
2022-10-18T02:18:18.153Z,74.76
2022-10-18T02:20:31.584Z,74.13
2022-10-18T02:21:34.141Z,74.59
2022-10-18T02:22:37.272Z,74.58
2022-10-18T02:23:39.090Z,74.79
2022-10-18T02:24:44.689Z,74.95
2022-10-18T02:25:46.364Z,76.62
2022-10-18T02:26:47.822Z,76.55
2022-10-18T02:27:49.684Z,77.23
2022-10-18T02:28:51.600Z,78.35
2022-10-18T02:29:53.427Z,79.07
2022-10-18T02:31:02.081Z,79.91
2022-10-18T02:32:08.028Z,80.90
2022-10-18T02:33:17.766Z,82.29
2022-10-18T02:34:22.342Z,82.84
2022-10-18T02:35:29.373Z,83.56
2022-10-18T02:36:35.722Z,84.22
2022-10-18T02:37:38.801Z,84.29
2022-10-18T02:38:41.987Z,84.18
2022-10-18T02:39:47.008Z,84.50
2022-10-18T02:40:48.439Z,84.67
2022-10-18T02:41:49.948Z,85.08
2022-10-18T02:42:57.189Z,85.63
2022-10-18T02:43:58.646Z,85.57
2022-10-18T02:45:00.056Z,85.77
2022-10-18T02:46:02.493Z,85.77
2022-10-18T02:47:05.525Z,85.40
2022-10-18T02:48:07.534Z,84.97
2022-10-18T02:49:10.336Z,85.53
2022-10-18T02:50:12.235Z,85.03
2022-10-18T02:51:13.729Z,84.93
2022-10-18T02:52:15.170Z,85.11
2022-10-18T02:53:16.600Z,85.28
2022-10-18T02:54:18.058Z,85.05
2022-10-18T02:55:19.513Z,84.24
2022-10-18T02:56:20.981Z,84.02
2022-10-18T02:57:22.527Z,83.56
2022-10-18T02:58:24.001Z,83.27
2022-10-18T02:59:25.787Z,83.14
2022-10-18T03:00:27.209Z,83.68
2022-10-18T03:01:28.712Z,83.30
2022-10-18T03:02:30.230Z,83.12
2022-10-18T03:03:31.667Z,83.63
2022-10-18T03:04:34.550Z,82.98
2022-10-18T03:05:35.986Z,82.66
2022-10-18T03:06:37.635Z,82.28
2022-10-18T03:07:39.065Z,83.18
2022-10-18T03:08:40.517Z,83.46
2022-10-18T03:09:41.932Z,83.39
2022-10-18T03:10:43.557Z,84.23
2022-10-18T03:11:45.030Z,84.86
2022-10-18T03:12:46.470Z,85.54
2022-10-18T03:13:47.936Z,85.82
2022-10-18T03:14:49.387Z,86.24
2022-10-18T03:15:50.803Z,86.29
2022-10-18T03:16:52.359Z,86.04
2022-10-18T03:17:53.776Z,85.72
2022-10-18T03:18:55.250Z,85.83
2022-10-18T03:19:58.052Z,85.51
2022-10-18T03:20:59.493Z,85.30
2022-10-18T03:22:00.920Z,84.83
2022-10-18T03:23:02.374Z,84.47
2022-10-18T03:24:04.704Z,84.22
2022-10-18T03:25:06.564Z,83.83
2022-10-18T03:26:08.109Z,83.40
2022-10-18T03:27:09.519Z,83.08
2022-10-18T03:28:11.125Z,83.13
2022-10-18T03:29:12.655Z,82.58
2022-10-18T03:30:14.198Z,82.68
2022-10-18T03:31:15.659Z,82.92
2022-10-18T03:32:17.125Z,82.56
2022-10-18T03:33:18.615Z,82.96
2022-10-18T03:34:20.069Z,83.09
2022-10-18T03:35:22.878Z,83.17
2022-10-18T03:36:24.396Z,83.17
2022-10-18T03:37:25.825Z,82.76
2022-10-18T03:38:27.319Z,83.06
2022-10-18T03:39:28.889Z,83.14
2022-10-18T03:41:36.975Z,82.45
2022-10-18T03:42:38.478Z,82.35
2022-10-18T03:43:39.914Z,82.40
2022-10-18T03:44:41.403Z,82.74
2022-10-18T03:45:43.100Z,82.98
2022-10-18T03:46:44.538Z,83.06
2022-10-18T03:47:46.106Z,83.03
2022-10-18T03:48:47.525Z,83.12
2022-10-18T03:49:51.980Z,83.20
2022-10-18T03:50:57.547Z,83.09
2022-10-18T03:51:59.107Z,83.10
2022-10-18T03:53:00.528Z,82.96
2022-10-18T03:54:02.178Z,82.88
2022-10-18T03:55:04.106Z,83.09
2022-10-18T03:56:06.251Z,83.43
2022-10-18T03:57:07.675Z,83.77
2022-10-18T03:58:09.283Z,83.66
2022-10-18T03:59:10.732Z,83.55
2022-10-18T04:00:13.195Z,83.86
2022-10-18T04:01:14.650Z,83.87
2022-10-18T04:02:16.106Z,83.39
2022-10-18T04:03:18.628Z,83.72
2022-10-18T04:04:20.204Z,84.05
2022-10-18T04:05:22.043Z,84.13
2022-10-18T04:06:24.863Z,83.83
2022-10-18T04:07:26.322Z,84.18
2022-10-18T04:08:27.806Z,84.96
2022-10-18T04:09:29.256Z,85.83
2022-10-18T04:10:30.726Z,86.08
2022-10-18T04:11:32.212Z,86.59
2022-10-18T04:12:33.964Z,87.27
2022-10-18T04:13:35.842Z,87.63
2022-10-18T04:14:37.291Z,87.88
2022-10-18T04:15:38.711Z,88.22
2022-10-18T04:16:40.346Z,88.12
2022-10-18T04:17:41.815Z,88.59
2022-10-18T04:18:43.254Z,88.82
2022-10-18T04:19:44.751Z,88.70
2022-10-18T04:20:46.193Z,88.37
2022-10-18T04:21:48.987Z,88.16
2022-10-18T04:22:50.882Z,87.95
2022-10-18T04:23:52.329Z,88.09
2022-10-18T04:24:53.794Z,87.41
2022-10-18T04:25:55.257Z,87.17
2022-10-18T04:26:56.721Z,87.05
2022-10-18T04:27:58.187Z,86.77
2022-10-18T04:28:59.656Z,87.22
2022-10-18T04:30:01.142Z,88.10
2022-10-18T04:31:02.595Z,89.21
2022-10-18T04:32:04.234Z,89.40
2022-10-18T04:33:05.871Z,89.50
2022-10-18T04:34:07.338Z,89.19
2022-10-18T04:35:10.206Z,89.05
2022-10-18T04:36:11.932Z,89.17
2022-10-18T04:37:14.760Z,89.24
2022-10-18T04:38:16.563Z,89.52
2022-10-18T04:39:18.032Z,89.52
2022-10-18T04:40:19.571Z,89.90
2022-10-18T04:41:21.375Z,90.39
2022-10-18T04:42:23.598Z,90.43
2022-10-18T04:43:25.048Z,91.50
2022-10-18T04:44:26.492Z,91.42
2022-10-18T04:45:27.930Z,91.78
2022-10-18T04:46:29.363Z,91.82
2022-10-18T04:47:31.101Z,91.26
2022-10-18T04:48:32.702Z,91.52
2022-10-18T04:49:34.336Z,90.92
2022-10-18T04:50:35.844Z,90.22
2022-10-18T04:51:37.251Z,89.89
2022-10-18T04:52:40.046Z,89.84
2022-10-18T04:53:41.574Z,89.19
2022-10-18T04:54:42.989Z,88.93
2022-10-18T04:55:45.135Z,88.61
2022-10-18T04:56:46.574Z,88.23
2022-10-18T04:57:48.026Z,88.10
2022-10-18T04:58:49.529Z,87.85
2022-10-18T04:59:50.983Z,88.20
2022-10-18T05:00:52.451Z,87.49
2022-10-18T05:01:54.010Z,87.43
2022-10-18T05:02:56.968Z,87.15
2022-10-18T05:03:58.412Z,87.57
2022-10-18T05:04:59.815Z,87.05
2022-10-18T05:06:02.643Z,86.96
2022-10-18T05:07:04.821Z,86.90
2022-10-18T05:08:07.640Z,86.58
2022-10-18T05:09:09.118Z,87.05
2022-10-18T05:10:10.681Z,87.04
2022-10-18T05:11:12.147Z,87.44
2022-10-18T05:12:13.595Z,87.23
2022-10-18T05:13:15.392Z,86.84
2022-10-18T05:14:17.048Z,87.22
2022-10-18T05:15:18.512Z,86.90
2022-10-18T05:16:19.976Z,86.72
2022-10-18T05:17:21.567Z,86.08
2022-10-18T05:18:23.059Z,86.10
2022-10-18T05:19:24.501Z,85.61
2022-10-18T05:20:25.904Z,85.43
2022-10-18T05:21:27.344Z,85.47
2022-10-18T05:22:28.927Z,85.64
2022-10-18T05:23:31.781Z,85.59
2022-10-18T05:24:33.497Z,85.77
2022-10-18T05:25:34.939Z,85.89
2022-10-18T05:26:36.404Z,85.63
2022-10-18T05:27:37.879Z,85.61
2022-10-18T05:28:40.779Z,85.62
2022-10-18T05:29:42.826Z,85.32
2022-10-18T05:30:44.322Z,85.73
2022-10-18T05:31:45.837Z,85.68
2022-10-18T05:32:47.267Z,85.57
2022-10-18T05:33:48.676Z,85.74
2022-10-18T05:34:50.130Z,85.84
2022-10-18T05:35:51.559Z,86.39
2022-10-18T05:36:53.073Z,86.13
2022-10-18T05:37:54.535Z,86.17
2022-10-18T05:39:00.910Z,86.62
2022-10-18T05:40:06.718Z,86.21
2022-10-18T05:41:08.267Z,86.52
2022-10-18T05:42:09.793Z,86.92
2022-10-18T05:43:11.245Z,86.72
2022-10-18T05:44:13.103Z,86.29
2022-10-18T05:45:14.723Z,86.35
2022-10-18T05:46:16.167Z,87.40
2022-10-18T05:47:17.606Z,86.98
2022-10-18T05:48:19.066Z,87.41
2022-10-18T05:49:20.801Z,87.12
2022-10-18T05:50:22.207Z,87.40
2022-10-18T05:51:23.972Z,87.58
2022-10-18T05:52:25.449Z,87.83
2022-10-18T05:53:42.945Z,87.88
2022-10-18T05:54:45.825Z,88.16
2022-10-18T05:55:47.257Z,88.18
2022-10-18T05:56:48.687Z,88.21
2022-10-18T05:57:50.277Z,87.33
2022-10-18T05:58:52.664Z,87.41
2022-10-18T05:59:54.094Z,87.41
2022-10-18T06:00:58.316Z,86.91
2022-10-18T06:01:59.796Z,86.73
2022-10-18T06:03:01.248Z,86.89
2022-10-18T06:04:02.849Z,87.00
2022-10-18T06:05:04.775Z,87.14
2022-10-18T06:06:08.125Z,87.11
2022-10-18T06:07:10.136Z,87.33
2022-10-18T06:08:11.570Z,86.96
2022-10-18T06:09:13.038Z,87.24
2022-10-18T06:10:15.833Z,86.90
2022-10-18T06:11:19.072Z,86.80
2022-10-18T06:12:20.505Z,88.04
2022-10-18T06:13:22.397Z,87.82
2022-10-18T06:14:23.887Z,87.49
2022-10-18T06:15:25.349Z,87.30
2022-10-18T06:16:32.053Z,87.69
2022-10-18T06:17:34.303Z,87.80
2022-10-18T06:18:35.957Z,88.24
2022-10-18T06:19:37.381Z,88.72
2022-10-18T06:20:38.820Z,89.49
2022-10-18T06:21:40.273Z,89.10
2022-10-18T06:22:41.717Z,89.06
2022-10-18T06:23:43.160Z,89.59
2022-10-18T06:24:44.583Z,89.68
2022-10-18T06:25:47.350Z,89.77
2022-10-18T06:26:48.779Z,89.60
2022-10-18T06:27:50.167Z,89.25
2022-10-18T06:28:51.715Z,89.04
2022-10-18T06:29:53.159Z,88.83
2022-10-18T06:30:54.608Z,88.60
2022-10-18T06:31:56.002Z,87.96
2022-10-18T06:33:00.036Z,87.72
2022-10-18T06:34:01.543Z,88.48
2022-10-18T06:35:03.134Z,88.02
2022-10-18T06:36:06.940Z,88.09
2022-10-18T06:37:08.348Z,88.34
2022-10-18T06:38:09.807Z,88.68
2022-10-18T06:39:11.369Z,89.60
2022-10-18T06:40:12.855Z,89.03
2022-10-18T06:41:15.744Z,89.47
2022-10-18T06:42:19.138Z,89.29
2022-10-18T06:43:24.233Z,89.40
2022-10-18T06:44:25.772Z,89.06
2022-10-18T06:45:27.302Z,89.04
2022-10-18T06:46:28.744Z,89.74
2022-10-18T06:47:30.168Z,89.43
2022-10-18T06:48:32.102Z,89.18
2022-10-18T06:49:33.536Z,89.24
2022-10-18T06:50:35.000Z,89.35
2022-10-18T06:51:36.597Z,88.60
2022-10-18T06:52:38.025Z,88.34
2022-10-18T06:53:44.261Z,88.03
2022-10-18T06:54:54.825Z,88.03
2022-10-18T06:56:00.007Z,87.57
2022-10-18T06:57:02.857Z,86.84
2022-10-18T06:58:04.295Z,86.79
2022-10-18T06:59:05.791Z,86.69
2022-10-18T07:00:08.707Z,86.26
2022-10-18T07:01:11.867Z,86.33
2022-10-18T07:02:15.375Z,86.33
2022-10-18T07:03:16.819Z,86.06
2022-10-18T07:04:18.266Z,85.42
2022-10-18T07:05:19.765Z,85.06
2022-10-18T07:06:22.624Z,85.15
2022-10-18T07:07:24.092Z,85.00
2022-10-18T07:08:25.559Z,84.84
2022-10-18T07:09:27.021Z,84.59
2022-10-18T07:10:28.760Z,84.87
2022-10-18T07:11:30.407Z,84.94
2022-10-18T07:12:34.027Z,85.10
2022-10-18T07:13:35.505Z,84.86
2022-10-18T07:14:37.025Z,84.68
2022-10-18T07:15:38.672Z,84.29
2022-10-18T07:16:40.267Z,84.06
2022-10-18T07:17:41.691Z,84.14
2022-10-18T07:18:46.155Z,84.39
2022-10-18T07:19:47.672Z,84.03
2022-10-18T07:20:49.142Z,84.19
2022-10-18T07:21:50.644Z,83.94
2022-10-18T07:22:55.786Z,83.87
2022-10-18T07:23:57.420Z,83.40
2022-10-18T07:24:58.886Z,83.86
2022-10-18T07:26:00.469Z,84.85
2022-10-18T07:27:01.926Z,83.81
2022-10-18T07:28:04.799Z,83.86
2022-10-18T07:29:08.057Z,83.99
2022-10-18T07:30:11.020Z,83.65
2022-10-18T07:31:13.064Z,83.12
2022-10-18T07:32:14.542Z,82.40
2022-10-18T07:33:15.977Z,82.61
2022-10-18T07:34:17.383Z,82.72
2022-10-18T07:35:18.898Z,82.94
2022-10-18T07:36:20.950Z,82.05
2022-10-18T07:37:25.466Z,81.86
2022-10-18T07:38:29.390Z,81.17
2022-10-18T07:39:30.836Z,81.67
2022-10-18T07:40:32.274Z,80.80
2022-10-18T07:41:34.338Z,81.23
2022-10-18T07:42:35.911Z,80.91
2022-10-18T07:43:42.198Z,80.34
2022-10-18T07:44:43.641Z,80.51
2022-10-18T07:45:51.783Z,79.87
2022-10-18T07:46:53.701Z,79.85
2022-10-18T07:47:55.728Z,79.35
2022-10-18T07:48:57.215Z,78.26
2022-10-18T07:49:58.662Z,78.32
2022-10-18T07:51:01.157Z,78.42
2022-10-18T07:52:02.811Z,77.74
2022-10-18T07:53:04.248Z,77.92
2022-10-18T07:54:05.739Z,77.43
2022-10-18T07:55:07.614Z,77.21
2022-10-18T07:56:11.438Z,77.93
2022-10-18T07:57:12.873Z,77.53
2022-10-18T07:58:14.430Z,77.47
2022-10-18T07:59:17.261Z,77.32
2022-10-18T08:00:18.745Z,77.19
2022-10-18T08:01:21.361Z,76.08
2022-10-18T08:02:23.149Z,76.63
2022-10-18T08:03:24.629Z,76.23
2022-10-18T08:04:26.060Z,76.07
2022-10-18T08:05:28.321Z,76.33
2022-10-18T08:06:29.984Z,75.52
2022-10-18T08:07:31.672Z,75.42
2022-10-18T08:08:33.310Z,75.20
2022-10-18T08:09:34.779Z,74.86
2022-10-18T08:10:36.285Z,74.52
2022-10-18T08:11:38.840Z,74.42
2022-10-18T08:12:40.252Z,74.10
2022-10-18T08:13:42.211Z,74.27
2022-10-18T08:14:44.994Z,73.78
2022-10-18T08:15:47.026Z,73.42
2022-10-18T08:16:48.576Z,73.17
2022-10-18T08:17:50.197Z,73.83
2022-10-18T08:18:51.657Z,73.30
2022-10-18T08:20:05.005Z,72.96
2022-10-18T08:21:15.191Z,72.61
2022-10-18T08:22:16.659Z,72.67
2022-10-18T08:23:18.099Z,72.38
2022-10-18T08:24:19.507Z,72.40
2022-10-18T08:25:21.020Z,72.57
2022-10-18T08:26:23.422Z,72.17
2022-10-18T08:27:24.833Z,71.02
2022-10-18T08:28:26.269Z,71.08
2022-10-18T08:29:31.559Z,71.94
2022-10-18T08:30:36.024Z,70.85
2022-10-18T08:31:37.556Z,71.61
2022-10-18T08:32:38.993Z,70.96
2022-10-18T08:33:40.543Z,70.61
2022-10-18T08:34:42.003Z,70.83
2022-10-18T08:35:43.449Z,71.16
2022-10-18T08:36:44.912Z,70.45
2022-10-18T08:37:46.376Z,70.66
2022-10-18T08:38:47.813Z,71.50
2022-10-18T08:39:49.682Z,70.81
2022-10-18T08:40:51.677Z,71.29
2022-10-18T08:42:18.557Z,71.72
2022-10-18T08:43:30.229Z,71.54
2022-10-18T08:44:32.774Z,71.48
2022-10-18T08:45:42.366Z,71.71
2022-10-18T08:46:46.531Z,72.39
2022-10-18T08:47:50.104Z,72.30
2022-10-18T08:48:54.867Z,72.22
2022-10-18T08:50:00.751Z,72.63
2022-10-18T08:51:04.781Z,73.41
2022-10-18T08:52:15.753Z,73.09
2022-10-18T08:53:23.940Z,73.52
2022-10-18T08:54:34.636Z,73.95
2022-10-18T08:55:42.024Z,73.35
2022-10-18T08:56:49.252Z,73.48
2022-10-18T08:57:51.518Z,73.18
2022-10-18T08:58:53.070Z,73.26
2022-10-18T08:59:54.559Z,73.26
2022-10-18T09:01:07.981Z,73.26
2022-10-18T09:02:22.400Z,72.78
2022-10-18T09:03:37.392Z,72.19
2022-10-18T09:04:48.472Z,72.41
2022-10-18T09:05:53.169Z,73.02
2022-10-18T09:07:06.193Z,72.45
2022-10-18T09:08:39.778Z,72.31
2022-10-18T09:09:46.602Z,71.78
2022-10-18T09:11:00.019Z,71.88
2022-10-18T09:12:19.799Z,71.19
2022-10-18T09:13:48.695Z,71.28
2022-10-18T09:15:03.138Z,70.49
2022-10-18T09:16:10.593Z,70.10
2022-10-18T09:17:23.125Z,70.51
2022-10-18T09:18:42.164Z,70.18
2022-10-18T09:19:53.670Z,69.94
2022-10-18T09:20:58.000Z,69.62
2022-10-18T09:22:07.457Z,70.24
2022-10-18T09:23:18.741Z,69.35
2022-10-18T09:24:26.562Z,69.28
2022-10-18T09:25:35.497Z,68.74
2022-10-18T09:26:43.536Z,68.97
2022-10-18T09:27:54.003Z,69.05
2022-10-18T09:29:07.889Z,68.51
2022-10-18T09:30:19.718Z,68.87
2022-10-18T09:31:30.272Z,69.04
2022-10-18T09:32:48.361Z,67.76
2022-10-18T09:33:54.853Z,67.80
2022-10-18T09:34:59.581Z,67.14
2022-10-18T09:36:03.135Z,66.99
2022-10-18T09:37:09.430Z,67.09
2022-10-18T09:38:15.842Z,67.59
2022-10-18T09:39:22.403Z,67.62
2022-10-18T09:40:27.784Z,66.55
2022-10-18T09:41:35.780Z,67.74
2022-10-18T09:42:42.080Z,68.04
2022-10-18T09:43:51.192Z,67.85
2022-10-18T09:44:56.902Z,67.22
2022-10-18T09:45:58.860Z,68.00
2022-10-18T09:47:12.297Z,67.43
2022-10-18T09:48:21.621Z,68.30
2022-10-18T09:49:26.808Z,68.84
2022-10-18T09:50:32.541Z,68.42
2022-10-18T09:51:36.789Z,68.85
2022-10-18T09:52:43.446Z,69.23
2022-10-18T09:53:57.668Z,71.91
2022-10-18T09:55:03.001Z,72.00
2022-10-18T09:56:06.514Z,72.16
2022-10-18T09:57:10.911Z,71.57
2022-10-18T09:58:14.065Z,71.16
2022-10-18T09:59:33.921Z,71.54
2022-10-18T10:00:44.349Z,71.35
2022-10-18T10:01:46.110Z,71.13
2022-10-18T10:02:48.960Z,70.09
2022-10-18T10:03:51.253Z,69.98
2022-10-18T10:04:53.425Z,69.18
2022-10-18T10:06:14.172Z,68.13
2022-10-18T10:07:17.848Z,68.56
2022-10-18T10:08:32.228Z,68.44
2022-10-18T10:09:39.879Z,68.49
2022-10-18T10:10:47.104Z,68.93
2022-10-18T10:11:50.304Z,68.81
2022-10-18T10:13:03.812Z,68.25
2022-10-18T10:14:13.235Z,69.15
2022-10-18T10:15:20.191Z,69.01
2022-10-18T10:16:22.982Z,69.60
2022-10-18T10:17:26.031Z,69.54
2022-10-18T10:18:31.216Z,70.28
2022-10-18T10:19:35.772Z,71.14
2022-10-18T10:20:44.776Z,70.57
2022-10-18T10:21:48.921Z,70.18
2022-10-18T10:22:52.259Z,70.34
2022-10-18T10:23:56.810Z,70.85
2022-10-18T10:24:59.225Z,70.09
2022-10-18T10:26:03.760Z,69.45
2022-10-18T10:27:10.091Z,68.61
2022-10-18T10:28:16.225Z,68.59
2022-10-18T10:29:50.290Z,67.47
2022-10-18T10:30:52.025Z,67.80
2022-10-18T10:32:01.953Z,67.82
2022-10-18T10:33:05.035Z,68.57
2022-10-18T10:34:20.098Z,68.40
2022-10-18T10:35:41.416Z,69.41
2022-10-18T10:36:52.610Z,69.20
2022-10-18T10:37:54.595Z,69.19
2022-10-18T10:39:03.976Z,68.36
2022-10-18T10:40:21.278Z,68.58
2022-10-18T10:41:25.677Z,68.55
2022-10-18T10:42:27.207Z,68.85
2022-10-18T10:43:37.456Z,69.07
2022-10-18T10:44:54.107Z,69.23
2022-10-18T10:45:59.275Z,68.21
2022-10-18T10:47:00.772Z,67.75
2022-10-18T10:48:06.993Z,68.28
2022-10-18T10:49:39.274Z,67.94
2022-10-18T10:50:56.159Z,68.68
2022-10-18T10:52:15.406Z,69.10
2022-10-18T10:53:42.285Z,69.33
2022-10-18T10:54:50.285Z,68.28
2022-10-18T10:55:54.871Z,68.42
2022-10-18T10:57:00.020Z,68.29
2022-10-18T10:58:01.642Z,67.27
2022-10-18T10:59:13.136Z,68.35
2022-10-18T11:00:36.836Z,68.50
2022-10-18T11:01:38.297Z,68.62
2022-10-18T11:02:39.889Z,68.67
2022-10-18T11:03:46.191Z,68.25
2022-10-18T11:04:51.049Z,68.73
2022-10-18T11:05:53.814Z,69.58
2022-10-18T11:07:06.668Z,69.43
2022-10-18T11:08:10.986Z,69.89
2022-10-18T11:09:22.909Z,69.22
2022-10-18T11:10:27.531Z,68.44
2022-10-18T11:11:33.517Z,66.68
2022-10-18T11:12:39.188Z,67.36
2022-10-18T11:13:53.339Z,67.85
2022-10-18T11:15:16.941Z,69.53
2022-10-18T11:16:26.277Z,70.37
2022-10-18T11:17:32.360Z,70.02
2022-10-18T11:18:36.491Z,70.04
2022-10-18T11:19:44.447Z,70.00
2022-10-18T11:20:51.031Z,70.17
2022-10-18T11:21:53.366Z,69.80
2022-10-18T11:23:01.586Z,68.42
2022-10-18T11:24:03.516Z,67.09
2022-10-18T11:25:05.635Z,67.62
2022-10-18T11:26:32.412Z,67.74
2022-10-18T11:27:40.915Z,66.49
2022-10-18T11:28:57.988Z,65.71
2022-10-18T11:30:18.593Z,65.81
2022-10-18T11:31:30.295Z,65.34
2022-10-18T11:32:42.800Z,65.15
2022-10-18T11:34:14.832Z,65.17
2022-10-18T11:35:33.086Z,64.43
2022-10-18T11:36:49.327Z,64.44
2022-10-18T11:38:15.485Z,64.20
2022-10-18T11:39:26.084Z,63.51
2022-10-18T11:40:37.662Z,63.65
2022-10-18T11:41:47.225Z,63.40
2022-10-18T11:42:58.324Z,63.99
2022-10-18T11:44:03.707Z,63.01
2022-10-18T11:45:18.220Z,64.72
2022-10-18T11:46:29.821Z,63.86
2022-10-18T11:47:40.926Z,62.31
2022-10-18T11:49:00.188Z,62.88
2022-10-18T11:50:11.869Z,64.53
2022-10-18T11:51:34.080Z,63.63
2022-10-18T11:52:49.043Z,63.97
2022-10-18T11:54:09.385Z,63.52
2022-10-18T11:55:33.042Z,62.75
2022-10-18T11:56:42.405Z,62.22
2022-10-18T11:57:50.064Z,63.34
2022-10-18T11:59:08.133Z,64.20
2022-10-18T12:00:21.347Z,62.58
2022-10-18T12:01:32.405Z,60.99
2022-10-18T12:02:55.554Z,61.31
2022-10-18T12:04:04.517Z,60.22
2022-10-18T12:05:24.528Z,61.09
2022-10-18T12:06:32.776Z,61.60
2022-10-18T12:07:40.678Z,63.23
2022-10-18T12:08:47.837Z,60.51
2022-10-18T12:09:52.348Z,61.32
2022-10-18T12:11:04.926Z,61.00
2022-10-18T12:12:12.214Z,61.50
2022-10-18T12:13:18.279Z,61.28
2022-10-18T12:14:25.343Z,63.50
2022-10-18T12:15:28.593Z,64.06
2022-10-18T12:16:50.517Z,63.80
2022-10-18T12:17:55.491Z,63.19
2022-10-18T12:18:59.960Z,63.37
2022-10-18T12:20:07.022Z,63.20
2022-10-18T12:21:10.943Z,61.80
2022-10-18T12:22:18.239Z,63.13
2022-10-18T12:23:25.915Z,61.69
2022-10-18T12:24:31.824Z,63.20
2022-10-18T12:25:38.280Z,64.71
2022-10-18T12:26:39.875Z,64.71
2022-10-18T12:27:46.185Z,64.47
2022-10-18T12:28:56.907Z,62.58
2022-10-18T12:30:03.571Z,63.86
2022-10-18T12:31:13.659Z,63.02
2022-10-18T12:32:19.139Z,63.18
2022-10-18T12:33:29.043Z,64.26
2022-10-18T12:34:36.307Z,62.97
2022-10-18T12:35:49.286Z,62.81
2022-10-18T12:37:08.274Z,63.81
2022-10-18T12:38:19.923Z,62.44
2022-10-18T12:39:33.427Z,62.68
2022-10-18T12:40:52.164Z,63.95
2022-10-18T12:41:54.943Z,64.59
2022-10-18T12:42:56.591Z,65.92
2022-10-18T12:44:02.625Z,65.03
2022-10-18T12:45:06.480Z,65.59
2022-10-18T12:46:13.245Z,63.17
2022-10-18T12:47:22.831Z,64.21
2022-10-18T12:48:43.124Z,64.86
2022-10-18T12:49:44.668Z,65.47
2022-10-18T12:50:58.028Z,64.52
2022-10-18T12:52:01.463Z,65.21
2022-10-18T12:53:18.740Z,66.08
2022-10-18T12:54:24.167Z,65.36
2022-10-18T12:55:35.139Z,64.67
2022-10-18T12:56:41.377Z,63.74
2022-10-18T12:58:04.334Z,64.56
2022-10-18T12:59:48.439Z,64.74
2022-10-18T13:01:06.797Z,64.23
2022-10-18T13:02:20.439Z,64.84
2022-10-18T13:03:37.909Z,65.99
2022-10-18T13:04:39.336Z,64.36
2022-10-18T13:05:57.552Z,62.90
2022-10-18T13:07:20.201Z,63.64
2022-10-18T13:08:38.607Z,63.38
2022-10-18T13:09:42.116Z,63.05
2022-10-18T13:10:44.437Z,61.96
2022-10-18T13:11:47.747Z,62.05
2022-10-18T13:12:59.583Z,62.11
2022-10-18T13:14:38.749Z,62.78
2022-10-18T13:15:53.684Z,62.07
2022-10-18T13:17:01.827Z,62.16
2022-10-18T13:18:10.638Z,63.02
2022-10-18T13:19:21.808Z,61.96
2022-10-18T13:20:29.522Z,62.79
2022-10-18T13:21:42.265Z,62.40
2022-10-18T13:23:00.319Z,60.98
2022-10-18T13:24:25.931Z,62.75
2022-10-18T13:25:32.436Z,62.94
2022-10-18T13:26:43.413Z,65.25
2022-10-18T13:27:52.218Z,65.45
2022-10-18T13:29:00.884Z,65.27
2022-10-18T13:30:18.748Z,66.86
2022-10-18T13:31:23.754Z,66.60
2022-10-18T13:32:32.389Z,65.38
2022-10-18T13:33:36.246Z,65.38
2022-10-18T13:34:37.717Z,65.30
2022-10-18T13:35:46.224Z,64.67
2022-10-18T13:36:56.737Z,64.78
2022-10-18T13:37:58.967Z,64.93
2022-10-18T13:39:04.075Z,66.00
2022-10-18T13:40:22.938Z,66.31
2022-10-18T13:41:28.239Z,65.69
2022-10-18T13:42:32.914Z,65.09
2022-10-18T13:43:57.798Z,66.29
2022-10-18T13:45:32.398Z,65.18
2022-10-18T13:47:19.447Z,64.90
2022-10-18T13:48:49.491Z,67.69
2022-10-18T13:50:17.841Z,67.17
2022-10-18T13:51:44.259Z,67.18
2022-10-18T13:53:11.598Z,67.08
2022-10-18T13:54:32.122Z,66.24
2022-10-18T13:55:55.899Z,63.95
2022-10-18T13:57:16.576Z,63.49
2022-10-18T13:58:27.640Z,63.95
2022-10-18T13:59:47.901Z,67.26
2022-10-18T14:01:02.669Z,66.49
2022-10-18T14:02:43.009Z,65.12
2022-10-18T14:04:11.500Z,65.65
2022-10-18T14:05:27.461Z,64.17
2022-10-18T14:06:35.261Z,64.80
2022-10-18T14:07:37.811Z,64.11
2022-10-18T14:08:45.096Z,64.25
2022-10-18T14:09:52.464Z,65.93
2022-10-18T14:11:03.533Z,65.11
2022-10-18T14:12:14.731Z,66.09
2022-10-18T14:13:20.209Z,65.89